sensor_id;sensor_type;location;lat;lon;timestamp;P1;durP1;ratioP1;P2;durP2;ratioP2
16737;SDS011;17906;47.684;10.806;2023-03-01T00:00:39;35.23;;;15.00;;
16737;SDS011;17906;47.684;10.806;2023-03-01T00:03:05;40.77;;;15.50;;
16737;SDS011;17906;47.684;10.806;2023-03-01T00:05:33;36.07;;;15.23;;
16737;SDS011;17906;47.684;10.806;2023-03-01T00:08:00;41.23;;;16.10;;
16737;SDS011;17906;47.684;10.806;2023-03-01T00:10:26;42.37;;;15.63;;
16737;SDS011;17906;47.684;10.806;2023-03-01T00:12:53;39.60;;;16.77;;
16737;SDS011;17906;47.684;10.806;2023-03-01T00:15:21;41.77;;;15.33;;
16737;SDS011;17906;47.684;10.806;2023-03-01T00:17:47;43.47;;;17.50;;
16737;SDS011;17906;47.684;10.806;2023-03-01T00:20:14;42.60;;;15.80;;
16737;SDS011;17906;47.684;10.806;2023-03-01T00:22:43;38.23;;;16.23;;
16737;SDS011;17906;47.684;10.806;2023-03-01T00:25:09;42.47;;;17.10;;
16737;SDS011;17906;47.684;10.806;2023-03-01T00:27:36;42.27;;;16.40;;
16737;SDS011;17906;47.684;10.806;2023-03-01T00:30:03;42.70;;;15.83;;
16737;SDS011;17906;47.684;10.806;2023-03-01T00:32:30;38.43;;;15.50;;
16737;SDS011;17906;47.684;10.806;2023-03-01T00:34:56;38.97;;;16.70;;
16737;SDS011;17906;47.684;10.806;2023-03-01T00:37:23;36.83;;;15.93;;
16737;SDS011;17906;47.684;10.806;2023-03-01T00:39:51;43.70;;;16.33;;
16737;SDS011;17906;47.684;10.806;2023-03-01T00:42:18;41.40;;;17.03;;
16737;SDS011;17906;47.684;10.806;2023-03-01T00:44:44;41.40;;;16.27;;
16737;SDS011;17906;47.684;10.806;2023-03-01T00:47:11;42.10;;;16.03;;
16737;SDS011;17906;47.684;10.806;2023-03-01T00:49:38;40.93;;;17.10;;
16737;SDS011;17906;47.684;10.806;2023-03-01T00:52:05;45.27;;;17.63;;
16737;SDS011;17906;47.684;10.806;2023-03-01T00:54:32;43.10;;;17.57;;
16737;SDS011;17906;47.684;10.806;2023-03-01T00:57:00;48.47;;;19.30;;
16737;SDS011;17906;47.684;10.806;2023-03-01T00:59:26;53.27;;;19.57;;
16737;SDS011;17906;47.684;10.806;2023-03-01T01:01:53;50.40;;;21.03;;
16737;SDS011;17906;47.684;10.806;2023-03-01T01:04:19;43.43;;;18.43;;
16737;SDS011;17906;47.684;10.806;2023-03-01T01:06:46;40.27;;;17.93;;
16737;SDS011;17906;47.684;10.806;2023-03-01T01:09:14;44.77;;;18.57;;
16737;SDS011;17906;47.684;10.806;2023-03-01T01:11:43;41.20;;;17.03;;
16737;SDS011;17906;47.684;10.806;2023-03-01T01:14:11;40.30;;;16.67;;
16737;SDS011;17906;47.684;10.806;2023-03-01T01:16:37;44.03;;;16.77;;
16737;SDS011;17906;47.684;10.806;2023-03-01T01:19:04;44.17;;;16.63;;
16737;SDS011;17906;47.684;10.806;2023-03-01T01:21:31;41.83;;;16.87;;
16737;SDS011;17906;47.684;10.806;2023-03-01T01:23:57;46.83;;;18.40;;
16737;SDS011;17906;47.684;10.806;2023-03-01T01:26:25;39.63;;;16.63;;
16737;SDS011;17906;47.684;10.806;2023-03-01T01:28:53;44.77;;;18.40;;
16737;SDS011;17906;47.684;10.806;2023-03-01T01:31:22;39.30;;;16.20;;
16737;SDS011;17906;47.684;10.806;2023-03-01T01:33:50;40.50;;;15.97;;
16737;SDS011;17906;47.684;10.806;2023-03-01T01:36:17;44.17;;;18.13;;
16737;SDS011;17906;47.684;10.806;2023-03-01T01:38:43;37.03;;;15.37;;
16737;SDS011;17906;47.684;10.806;2023-03-01T01:41:11;45.60;;;18.37;;
16737;SDS011;17906;47.684;10.806;2023-03-01T01:43:39;43.90;;;16.13;;
16737;SDS011;17906;47.684;10.806;2023-03-01T01:46:10;41.73;;;16.73;;
16737;SDS011;17906;47.684;10.806;2023-03-01T01:48:50;41.07;;;17.20;;
16737;SDS011;17906;47.684;10.806;2023-03-01T01:51:23;40.70;;;17.03;;
16737;SDS011;17906;47.684;10.806;2023-03-01T01:53:54;42.87;;;16.13;;
16737;SDS011;17906;47.684;10.806;2023-03-01T01:56:25;39.60;;;16.90;;
16737;SDS011;17906;47.684;10.806;2023-03-01T01:58:54;36.97;;;16.33;;
16737;SDS011;17906;47.684;10.806;2023-03-01T02:01:21;40.40;;;16.80;;
16737;SDS011;17906;47.684;10.806;2023-03-01T02:03:49;41.40;;;17.00;;
16737;SDS011;17906;47.684;10.806;2023-03-01T02:06:17;40.67;;;15.53;;
16737;SDS011;17906;47.684;10.806;2023-03-01T02:08:48;46.00;;;18.07;;
16737;SDS011;17906;47.684;10.806;2023-03-01T02:11:17;40.43;;;16.23;;
16737;SDS011;17906;47.684;10.806;2023-03-01T02:13:45;39.57;;;16.60;;
16737;SDS011;17906;47.684;10.806;2023-03-01T02:16:13;37.70;;;15.10;;
16737;SDS011;17906;47.684;10.806;2023-03-01T02:18:41;38.53;;;15.53;;
16737;SDS011;17906;47.684;10.806;2023-03-01T02:21:13;37.63;;;16.43;;
16737;SDS011;17906;47.684;10.806;2023-03-01T02:23:51;38.67;;;16.30;;
16737;SDS011;17906;47.684;10.806;2023-03-01T02:26:23;40.90;;;16.10;;
16737;SDS011;17906;47.684;10.806;2023-03-01T02:28:57;42.40;;;16.23;;
16737;SDS011;17906;47.684;10.806;2023-03-01T02:31:24;48.97;;;18.70;;
16737;SDS011;17906;47.684;10.806;2023-03-01T02:34:11;42.83;;;17.33;;
16737;SDS011;17906;47.684;10.806;2023-03-01T02:36:39;45.77;;;18.20;;
16737;SDS011;17906;47.684;10.806;2023-03-01T02:39:09;43.83;;;17.60;;
16737;SDS011;17906;47.684;10.806;2023-03-01T02:41:44;47.73;;;17.80;;
16737;SDS011;17906;47.684;10.806;2023-03-01T02:44:15;39.53;;;16.87;;
16737;SDS011;17906;47.684;10.806;2023-03-01T02:46:42;41.53;;;16.33;;
16737;SDS011;17906;47.684;10.806;2023-03-01T02:49:18;42.10;;;17.27;;
16737;SDS011;17906;47.684;10.806;2023-03-01T02:51:48;37.67;;;15.73;;
16737;SDS011;17906;47.684;10.806;2023-03-01T02:54:28;39.07;;;16.63;;
16737;SDS011;17906;47.684;10.806;2023-03-01T02:56:57;38.83;;;15.33;;
16737;SDS011;17906;47.684;10.806;2023-03-01T02:59:27;39.60;;;15.63;;
16737;SDS011;17906;47.684;10.806;2023-03-01T03:01:57;40.03;;;17.00;;
16737;SDS011;17906;47.684;10.806;2023-03-01T03:04:24;40.57;;;16.10;;
16737;SDS011;17906;47.684;10.806;2023-03-01T03:06:50;34.67;;;15.23;;
16737;SDS011;17906;47.684;10.806;2023-03-01T03:09:17;40.77;;;17.37;;
16737;SDS011;17906;47.684;10.806;2023-03-01T03:11:44;41.53;;;17.33;;
16737;SDS011;17906;47.684;10.806;2023-03-01T03:14:12;44.40;;;17.77;;
16737;SDS011;17906;47.684;10.806;2023-03-01T03:16:42;38.53;;;17.30;;
16737;SDS011;17906;47.684;10.806;2023-03-01T03:19:10;40.27;;;16.10;;
16737;SDS011;17906;47.684;10.806;2023-03-01T03:21:37;39.17;;;16.43;;
16737;SDS011;17906;47.684;10.806;2023-03-01T03:24:04;39.03;;;16.40;;
16737;SDS011;17906;47.684;10.806;2023-03-01T03:26:31;42.63;;;17.63;;
16737;SDS011;17906;47.684;10.806;2023-03-01T03:28:57;41.83;;;17.60;;
16737;SDS011;17906;47.684;10.806;2023-03-01T03:31:24;43.00;;;17.70;;
16737;SDS011;17906;47.684;10.806;2023-03-01T03:33:52;44.00;;;18.10;;
16737;SDS011;17906;47.684;10.806;2023-03-01T03:36:20;45.07;;;18.80;;
16737;SDS011;17906;47.684;10.806;2023-03-01T03:38:48;40.77;;;17.57;;
16737;SDS011;17906;47.684;10.806;2023-03-01T03:41:15;42.73;;;17.73;;
16737;SDS011;17906;47.684;10.806;2023-03-01T03:43:42;43.27;;;17.80;;
16737;SDS011;17906;47.684;10.806;2023-03-01T03:46:10;37.97;;;16.37;;
16737;SDS011;17906;47.684;10.806;2023-03-01T03:48:38;42.27;;;17.20;;
16737;SDS011;17906;47.684;10.806;2023-03-01T03:51:11;41.27;;;17.60;;
16737;SDS011;17906;47.684;10.806;2023-03-01T03:53:38;46.37;;;17.63;;
16737;SDS011;17906;47.684;10.806;2023-03-01T03:56:05;47.03;;;18.37;;
16737;SDS011;17906;47.684;10.806;2023-03-01T03:58:32;49.77;;;18.83;;
16737;SDS011;17906;47.684;10.806;2023-03-01T04:00:59;45.37;;;18.70;;
16737;SDS011;17906;47.684;10.806;2023-03-01T04:03:27;42.57;;;17.73;;
16737;SDS011;17906;47.684;10.806;2023-03-01T04:05:56;47.23;;;17.17;;
16737;SDS011;17906;47.684;10.806;2023-03-01T04:08:25;46.60;;;17.73;;
16737;SDS011;17906;47.684;10.806;2023-03-01T04:10:56;51.73;;;19.00;;
16737;SDS011;17906;47.684;10.806;2023-03-01T04:13:24;41.03;;;16.87;;
16737;SDS011;17906;47.684;10.806;2023-03-01T04:15:51;51.73;;;17.90;;
16737;SDS011;17906;47.684;10.806;2023-03-01T04:18:20;44.87;;;16.70;;
16737;SDS011;17906;47.684;10.806;2023-03-01T04:20:48;40.80;;;17.63;;
16737;SDS011;17906;47.684;10.806;2023-03-01T04:23:19;43.73;;;17.53;;
16737;SDS011;17906;47.684;10.806;2023-03-01T04:25:48;43.83;;;18.30;;
16737;SDS011;17906;47.684;10.806;2023-03-01T04:28:20;44.03;;;17.83;;
16737;SDS011;17906;47.684;10.806;2023-03-01T04:30:49;39.90;;;17.07;;
16737;SDS011;17906;47.684;10.806;2023-03-01T04:33:16;41.23;;;18.77;;
16737;SDS011;17906;47.684;10.806;2023-03-01T04:35:43;44.47;;;17.23;;
16737;SDS011;17906;47.684;10.806;2023-03-01T04:38:10;46.63;;;18.67;;
16737;SDS011;17906;47.684;10.806;2023-03-01T04:40:37;46.33;;;19.67;;
16737;SDS011;17906;47.684;10.806;2023-03-01T04:43:05;40.67;;;18.07;;
16737;SDS011;17906;47.684;10.806;2023-03-01T04:45:31;45.80;;;19.10;;
16737;SDS011;17906;47.684;10.806;2023-03-01T04:48:00;41.60;;;16.80;;
16737;SDS011;17906;47.684;10.806;2023-03-01T04:50:27;41.50;;;16.67;;
16737;SDS011;17906;47.684;10.806;2023-03-01T04:52:54;42.93;;;16.40;;
16737;SDS011;17906;47.684;10.806;2023-03-01T04:55:23;41.33;;;15.90;;
16737;SDS011;17906;47.684;10.806;2023-03-01T04:57:50;42.70;;;16.50;;
16737;SDS011;17906;47.684;10.806;2023-03-01T05:00:19;41.43;;;16.23;;
16737;SDS011;17906;47.684;10.806;2023-03-01T05:02:47;41.73;;;16.73;;
16737;SDS011;17906;47.684;10.806;2023-03-01T05:05:18;40.20;;;16.87;;
16737;SDS011;17906;47.684;10.806;2023-03-01T05:07:51;40.03;;;16.10;;
16737;SDS011;17906;47.684;10.806;2023-03-01T05:10:18;41.87;;;16.53;;
16737;SDS011;17906;47.684;10.806;2023-03-01T05:12:45;44.00;;;16.83;;
16737;SDS011;17906;47.684;10.806;2023-03-01T05:15:12;45.27;;;17.57;;
16737;SDS011;17906;47.684;10.806;2023-03-01T05:17:41;42.03;;;16.77;;
16737;SDS011;17906;47.684;10.806;2023-03-01T05:20:08;42.63;;;15.87;;
16737;SDS011;17906;47.684;10.806;2023-03-01T05:22:35;48.23;;;17.97;;
16737;SDS011;17906;47.684;10.806;2023-03-01T05:25:03;43.33;;;16.73;;
16737;SDS011;17906;47.684;10.806;2023-03-01T05:27:30;39.37;;;15.23;;
16737;SDS011;17906;47.684;10.806;2023-03-01T05:29:56;40.77;;;16.83;;
16737;SDS011;17906;47.684;10.806;2023-03-01T05:32:23;47.37;;;17.60;;
16737;SDS011;17906;47.684;10.806;2023-03-01T05:34:51;44.67;;;17.67;;
16737;SDS011;17906;47.684;10.806;2023-03-01T05:37:19;44.20;;;16.33;;
16737;SDS011;17906;47.684;10.806;2023-03-01T05:39:45;43.07;;;16.87;;
16737;SDS011;17906;47.684;10.806;2023-03-01T05:42:12;47.07;;;19.53;;
16737;SDS011;17906;47.684;10.806;2023-03-01T05:44:38;45.37;;;18.03;;
16737;SDS011;17906;47.684;10.806;2023-03-01T05:47:05;42.73;;;18.23;;
16737;SDS011;17906;47.684;10.806;2023-03-01T05:49:32;44.77;;;18.73;;
16737;SDS011;17906;47.684;10.806;2023-03-01T05:52:00;44.83;;;18.17;;
16737;SDS011;17906;47.684;10.806;2023-03-01T05:54:26;41.73;;;17.23;;
16737;SDS011;17906;47.684;10.806;2023-03-01T05:56:53;40.17;;;16.83;;
16737;SDS011;17906;47.684;10.806;2023-03-01T05:59:20;49.63;;;18.23;;
16737;SDS011;17906;47.684;10.806;2023-03-01T06:01:46;40.77;;;16.17;;
16737;SDS011;17906;47.684;10.806;2023-03-01T06:04:13;45.33;;;17.47;;
16737;SDS011;17906;47.684;10.806;2023-03-01T06:06:39;45.87;;;17.80;;
16737;SDS011;17906;47.684;10.806;2023-03-01T06:09:07;41.50;;;18.10;;
16737;SDS011;17906;47.684;10.806;2023-03-01T06:11:35;48.87;;;18.30;;
16737;SDS011;17906;47.684;10.806;2023-03-01T06:14:02;51.50;;;18.23;;
16737;SDS011;17906;47.684;10.806;2023-03-01T06:16:29;46.97;;;17.77;;
16737;SDS011;17906;47.684;10.806;2023-03-01T06:18:56;50.27;;;20.53;;
16737;SDS011;17906;47.684;10.806;2023-03-01T06:21:22;42.93;;;17.97;;
16737;SDS011;17906;47.684;10.806;2023-03-01T06:23:48;45.80;;;17.57;;
16737;SDS011;17906;47.684;10.806;2023-03-01T06:26:16;42.57;;;16.37;;
16737;SDS011;17906;47.684;10.806;2023-03-01T06:28:43;39.40;;;15.20;;
16737;SDS011;17906;47.684;10.806;2023-03-01T06:31:11;40.87;;;16.23;;
16737;SDS011;17906;47.684;10.806;2023-03-01T06:33:37;44.90;;;18.67;;
16737;SDS011;17906;47.684;10.806;2023-03-01T06:36:04;41.20;;;15.60;;
16737;SDS011;17906;47.684;10.806;2023-03-01T06:38:31;40.53;;;15.70;;
16737;SDS011;17906;47.684;10.806;2023-03-01T06:40:58;40.23;;;15.80;;
16737;SDS011;17906;47.684;10.806;2023-03-01T06:43:26;36.70;;;14.77;;
16737;SDS011;17906;47.684;10.806;2023-03-01T06:45:52;36.23;;;15.50;;
16737;SDS011;17906;47.684;10.806;2023-03-01T06:48:19;39.97;;;15.93;;
16737;SDS011;17906;47.684;10.806;2023-03-01T06:50:45;35.73;;;15.30;;
16737;SDS011;17906;47.684;10.806;2023-03-01T06:53:12;38.93;;;15.60;;
16737;SDS011;17906;47.684;10.806;2023-03-01T06:55:39;40.33;;;17.07;;
16737;SDS011;17906;47.684;10.806;2023-03-01T06:58:05;43.50;;;16.40;;
16737;SDS011;17906;47.684;10.806;2023-03-01T07:00:33;46.13;;;16.00;;
16737;SDS011;17906;47.684;10.806;2023-03-01T07:03:00;42.17;;;16.23;;
16737;SDS011;17906;47.684;10.806;2023-03-01T07:05:28;42.40;;;16.20;;
16737;SDS011;17906;47.684;10.806;2023-03-01T07:07:55;39.17;;;15.93;;
16737;SDS011;17906;47.684;10.806;2023-03-01T07:10:21;39.83;;;16.17;;
16737;SDS011;17906;47.684;10.806;2023-03-01T07:12:48;42.00;;;16.93;;
16737;SDS011;17906;47.684;10.806;2023-03-01T07:15:15;46.13;;;16.73;;
16737;SDS011;17906;47.684;10.806;2023-03-01T07:17:43;40.93;;;16.47;;
16737;SDS011;17906;47.684;10.806;2023-03-01T07:20:12;41.40;;;17.17;;
16737;SDS011;17906;47.684;10.806;2023-03-01T07:22:39;40.60;;;17.27;;
16737;SDS011;17906;47.684;10.806;2023-03-01T07:25:07;38.93;;;16.77;;
16737;SDS011;17906;47.684;10.806;2023-03-01T07:27:34;41.33;;;17.20;;
16737;SDS011;17906;47.684;10.806;2023-03-01T07:30:01;47.20;;;18.00;;
16737;SDS011;17906;47.684;10.806;2023-03-01T07:32:27;41.03;;;18.00;;
16737;SDS011;17906;47.684;10.806;2023-03-01T07:34:55;44.07;;;16.53;;
16737;SDS011;17906;47.684;10.806;2023-03-01T07:37:22;39.30;;;16.10;;
16737;SDS011;17906;47.684;10.806;2023-03-01T07:39:48;39.77;;;16.57;;
16737;SDS011;17906;47.684;10.806;2023-03-01T07:42:15;41.87;;;17.20;;
16737;SDS011;17906;47.684;10.806;2023-03-01T07:44:41;34.93;;;14.93;;
16737;SDS011;17906;47.684;10.806;2023-03-01T07:47:08;41.67;;;17.10;;
16737;SDS011;17906;47.684;10.806;2023-03-01T07:49:34;43.73;;;16.73;;
16737;SDS011;17906;47.684;10.806;2023-03-01T07:52:02;40.90;;;16.67;;
16737;SDS011;17906;47.684;10.806;2023-03-01T07:54:29;39.27;;;16.67;;
16737;SDS011;17906;47.684;10.806;2023-03-01T07:56:56;33.87;;;14.80;;
16737;SDS011;17906;47.684;10.806;2023-03-01T07:59:23;30.83;;;12.83;;
16737;SDS011;17906;47.684;10.806;2023-03-01T08:01:54;33.90;;;14.47;;
16737;SDS011;17906;47.684;10.806;2023-03-01T08:04:20;32.20;;;13.37;;
16737;SDS011;17906;47.684;10.806;2023-03-01T08:06:47;34.93;;;14.50;;
16737;SDS011;17906;47.684;10.806;2023-03-01T08:09:15;43.00;;;14.80;;
16737;SDS011;17906;47.684;10.806;2023-03-01T08:11:41;32.87;;;13.97;;
16737;SDS011;17906;47.684;10.806;2023-03-01T08:14:08;34.23;;;14.73;;
16737;SDS011;17906;47.684;10.806;2023-03-01T08:16:35;32.70;;;14.13;;
16737;SDS011;17906;47.684;10.806;2023-03-01T08:19:03;34.23;;;13.80;;
16737;SDS011;17906;47.684;10.806;2023-03-01T08:21:30;35.83;;;14.73;;
16737;SDS011;17906;47.684;10.806;2023-03-01T08:23:57;40.53;;;14.80;;
16737;SDS011;17906;47.684;10.806;2023-03-01T08:26:25;35.20;;;14.70;;
16737;SDS011;17906;47.684;10.806;2023-03-01T08:28:51;33.00;;;13.53;;
16737;SDS011;17906;47.684;10.806;2023-03-01T08:31:19;32.53;;;14.67;;
16737;SDS011;17906;47.684;10.806;2023-03-01T08:33:47;33.07;;;13.67;;
16737;SDS011;17906;47.684;10.806;2023-03-01T08:36:20;31.40;;;14.57;;
16737;SDS011;17906;47.684;10.806;2023-03-01T08:38:47;32.33;;;13.80;;
16737;SDS011;17906;47.684;10.806;2023-03-01T08:41:13;34.87;;;14.03;;
16737;SDS011;17906;47.684;10.806;2023-03-01T08:43:42;35.93;;;15.20;;
16737;SDS011;17906;47.684;10.806;2023-03-01T08:46:08;28.20;;;13.87;;
16737;SDS011;17906;47.684;10.806;2023-03-01T08:48:37;38.47;;;15.00;;
16737;SDS011;17906;47.684;10.806;2023-03-01T08:51:07;36.43;;;14.33;;
16737;SDS011;17906;47.684;10.806;2023-03-01T08:53:35;33.20;;;14.57;;
16737;SDS011;17906;47.684;10.806;2023-03-01T08:56:01;34.33;;;14.10;;
16737;SDS011;17906;47.684;10.806;2023-03-01T08:58:28;32.63;;;14.20;;
16737;SDS011;17906;47.684;10.806;2023-03-01T09:00:56;30.87;;;14.00;;
16737;SDS011;17906;47.684;10.806;2023-03-01T09:03:24;34.33;;;14.67;;
16737;SDS011;17906;47.684;10.806;2023-03-01T09:05:51;39.17;;;15.37;;
16737;SDS011;17906;47.684;10.806;2023-03-01T09:08:18;37.23;;;15.00;;
16737;SDS011;17906;47.684;10.806;2023-03-01T09:10:45;33.77;;;13.57;;
16737;SDS011;17906;47.684;10.806;2023-03-01T09:13:12;30.57;;;13.53;;
16737;SDS011;17906;47.684;10.806;2023-03-01T09:15:38;30.70;;;14.03;;
16737;SDS011;17906;47.684;10.806;2023-03-01T09:18:06;41.30;;;15.53;;
16737;SDS011;17906;47.684;10.806;2023-03-01T09:20:33;32.00;;;14.03;;
16737;SDS011;17906;47.684;10.806;2023-03-01T09:23:00;35.70;;;14.50;;
16737;SDS011;17906;47.684;10.806;2023-03-01T09:25:26;30.47;;;13.57;;
16737;SDS011;17906;47.684;10.806;2023-03-01T09:27:54;34.37;;;11.80;;
16737;SDS011;17906;47.684;10.806;2023-03-01T09:30:20;37.13;;;14.33;;
16737;SDS011;17906;47.684;10.806;2023-03-01T09:32:47;27.10;;;11.93;;
16737;SDS011;17906;47.684;10.806;2023-03-01T09:35:15;40.23;;;15.57;;
16737;SDS011;17906;47.684;10.806;2023-03-01T09:37:45;35.00;;;14.20;;
16737;SDS011;17906;47.684;10.806;2023-03-01T09:40:12;36.17;;;16.07;;
16737;SDS011;17906;47.684;10.806;2023-03-01T09:42:53;36.03;;;15.37;;
16737;SDS011;17906;47.684;10.806;2023-03-01T09:45:27;35.57;;;15.03;;
16737;SDS011;17906;47.684;10.806;2023-03-01T09:47:59;31.77;;;12.63;;
16737;SDS011;17906;47.684;10.806;2023-03-01T09:50:32;31.70;;;14.17;;
16737;SDS011;17906;47.684;10.806;2023-03-01T09:53:01;33.07;;;14.33;;
16737;SDS011;17906;47.684;10.806;2023-03-01T09:55:34;28.93;;;12.73;;
16737;SDS011;17906;47.684;10.806;2023-03-01T09:58:08;29.00;;;12.97;;
16737;SDS011;17906;47.684;10.806;2023-03-01T10:00:53;30.87;;;12.83;;
16737;SDS011;17906;47.684;10.806;2023-03-01T10:03:24;30.23;;;13.43;;
16737;SDS011;17906;47.684;10.806;2023-03-01T10:05:58;29.53;;;12.43;;
16737;SDS011;17906;47.684;10.806;2023-03-01T10:08:31;30.77;;;12.67;;
16737;SDS011;17906;47.684;10.806;2023-03-01T10:11:04;31.30;;;12.90;;
16737;SDS011;17906;47.684;10.806;2023-03-01T10:13:33;26.47;;;12.37;;
16737;SDS011;17906;47.684;10.806;2023-03-01T10:16:09;26.07;;;11.93;;
16737;SDS011;17906;47.684;10.806;2023-03-01T10:18:40;27.07;;;11.47;;
16737;SDS011;17906;47.684;10.806;2023-03-01T10:21:12;25.93;;;11.20;;
16737;SDS011;17906;47.684;10.806;2023-03-01T10:23:41;26.97;;;11.43;;
16737;SDS011;17906;47.684;10.806;2023-03-01T10:29:02;23.40;;;11.40;;
16737;SDS011;17906;47.684;10.806;2023-03-01T10:31:34;24.90;;;11.77;;
16737;SDS011;17906;47.684;10.806;2023-03-01T10:34:08;27.30;;;12.17;;
16737;SDS011;17906;47.684;10.806;2023-03-01T10:36:37;28.47;;;11.17;;
16737;SDS011;17906;47.684;10.806;2023-03-01T10:39:11;24.60;;;10.87;;
16737;SDS011;17906;47.684;10.806;2023-03-01T10:41:45;23.37;;;10.70;;
16737;SDS011;17906;47.684;10.806;2023-03-01T10:44:34;27.23;;;10.60;;
16737;SDS011;17906;47.684;10.806;2023-03-01T10:47:13;28.87;;;12.13;;
16737;SDS011;17906;47.684;10.806;2023-03-01T10:49:51;27.63;;;11.10;;
16737;SDS011;17906;47.684;10.806;2023-03-01T10:52:25;33.13;;;11.90;;
16737;SDS011;17906;47.684;10.806;2023-03-01T10:54:55;22.90;;;10.53;;
16737;SDS011;17906;47.684;10.806;2023-03-01T10:57:34;25.57;;;11.57;;
16737;SDS011;17906;47.684;10.806;2023-03-01T11:00:21;27.10;;;11.87;;
16737;SDS011;17906;47.684;10.806;2023-03-01T11:02:51;24.27;;;10.03;;
16737;SDS011;17906;47.684;10.806;2023-03-01T11:05:29;26.80;;;11.70;;
16737;SDS011;17906;47.684;10.806;2023-03-01T11:08:00;24.73;;;11.43;;
16737;SDS011;17906;47.684;10.806;2023-03-01T11:10:28;23.67;;;10.43;;
16737;SDS011;17906;47.684;10.806;2023-03-01T11:13:05;29.03;;;12.10;;
16737;SDS011;17906;47.684;10.806;2023-03-01T11:15:34;32.13;;;12.90;;
16737;SDS011;17906;47.684;10.806;2023-03-01T11:18:00;27.63;;;12.80;;
16737;SDS011;17906;47.684;10.806;2023-03-01T11:20:29;29.37;;;12.83;;
16737;SDS011;17906;47.684;10.806;2023-03-01T11:23:00;32.53;;;13.70;;
16737;SDS011;17906;47.684;10.806;2023-03-01T11:25:31;29.33;;;12.70;;
16737;SDS011;17906;47.684;10.806;2023-03-01T11:28:01;26.70;;;12.00;;
16737;SDS011;17906;47.684;10.806;2023-03-01T11:30:31;26.60;;;11.57;;
16737;SDS011;17906;47.684;10.806;2023-03-01T11:33:10;26.27;;;11.77;;
16737;SDS011;17906;47.684;10.806;2023-03-01T11:35:44;22.97;;;10.63;;
16737;SDS011;17906;47.684;10.806;2023-03-01T11:38:18;26.37;;;11.70;;
16737;SDS011;17906;47.684;10.806;2023-03-01T11:40:49;25.37;;;11.10;;
16737;SDS011;17906;47.684;10.806;2023-03-01T11:43:20;28.17;;;11.17;;
16737;SDS011;17906;47.684;10.806;2023-03-01T11:46:00;25.60;;;11.97;;
16737;SDS011;17906;47.684;10.806;2023-03-01T11:48:50;26.47;;;11.77;;
16737;SDS011;17906;47.684;10.806;2023-03-01T11:51:24;26.73;;;12.00;;
16737;SDS011;17906;47.684;10.806;2023-03-01T11:54:09;27.77;;;11.23;;
16737;SDS011;17906;47.684;10.806;2023-03-01T11:56:43;31.80;;;12.53;;
16737;SDS011;17906;47.684;10.806;2023-03-01T11:59:27;29.23;;;12.50;;
16737;SDS011;17906;47.684;10.806;2023-03-01T12:05:13;24.17;;;11.80;;
16737;SDS011;17906;47.684;10.806;2023-03-01T12:07:52;25.10;;;11.23;;
16737;SDS011;17906;47.684;10.806;2023-03-01T12:10:27;23.00;;;10.80;;
16737;SDS011;17906;47.684;10.806;2023-03-01T12:12:58;26.67;;;11.70;;
16737;SDS011;17906;47.684;10.806;2023-03-01T12:15:45;27.03;;;11.93;;
16737;SDS011;17906;47.684;10.806;2023-03-01T12:21:24;26.70;;;11.43;;
16737;SDS011;17906;47.684;10.806;2023-03-01T12:24:08;29.17;;;12.17;;
16737;SDS011;17906;47.684;10.806;2023-03-01T12:26:50;27.03;;;11.97;;
16737;SDS011;17906;47.684;10.806;2023-03-01T12:29:28;33.00;;;13.83;;
16737;SDS011;17906;47.684;10.806;2023-03-01T12:32:03;39.10;;;14.13;;
16737;SDS011;17906;47.684;10.806;2023-03-01T12:34:47;29.57;;;12.57;;
16737;SDS011;17906;47.684;10.806;2023-03-01T12:37:24;30.47;;;13.27;;
16737;SDS011;17906;47.684;10.806;2023-03-01T12:40:03;35.70;;;15.40;;
16737;SDS011;17906;47.684;10.806;2023-03-01T12:42:45;45.93;;;18.40;;
16737;SDS011;17906;47.684;10.806;2023-03-01T12:48:18;28.50;;;12.13;;
16737;SDS011;17906;47.684;10.806;2023-03-01T12:50:57;28.60;;;12.17;;
16737;SDS011;17906;47.684;10.806;2023-03-01T12:53:28;33.23;;;13.77;;
16737;SDS011;17906;47.684;10.806;2023-03-01T12:55:58;30.53;;;12.77;;
16737;SDS011;17906;47.684;10.806;2023-03-01T12:58:29;30.17;;;13.07;;
16737;SDS011;17906;47.684;10.806;2023-03-01T13:01:04;33.53;;;12.90;;
16737;SDS011;17906;47.684;10.806;2023-03-01T13:03:44;30.70;;;13.67;;
16737;SDS011;17906;47.684;10.806;2023-03-01T13:06:25;30.73;;;13.33;;
16737;SDS011;17906;47.684;10.806;2023-03-01T13:09:04;31.10;;;13.73;;
16737;SDS011;17906;47.684;10.806;2023-03-01T13:11:34;27.23;;;13.40;;
16737;SDS011;17906;47.684;10.806;2023-03-01T13:17:19;25.23;;;12.00;;
16737;SDS011;17906;47.684;10.806;2023-03-01T13:19:58;36.53;;;15.27;;
16737;SDS011;17906;47.684;10.806;2023-03-01T13:22:26;37.00;;;15.10;;
16737;SDS011;17906;47.684;10.806;2023-03-01T13:25:03;32.13;;;13.70;;
16737;SDS011;17906;47.684;10.806;2023-03-01T13:27:39;33.67;;;14.00;;
16737;SDS011;17906;47.684;10.806;2023-03-01T13:30:38;40.67;;;15.90;;
16737;SDS011;17906;47.684;10.806;2023-03-01T13:36:08;57.47;;;20.87;;
16737;SDS011;17906;47.684;10.806;2023-03-01T13:38:41;45.60;;;19.17;;
16737;SDS011;17906;47.684;10.806;2023-03-01T13:41:12;35.20;;;16.23;;
16737;SDS011;17906;47.684;10.806;2023-03-01T13:43:40;32.20;;;14.10;;
16737;SDS011;17906;47.684;10.806;2023-03-01T13:46:09;31.23;;;13.33;;
16737;SDS011;17906;47.684;10.806;2023-03-01T13:48:38;28.90;;;12.03;;
16737;SDS011;17906;47.684;10.806;2023-03-01T13:51:10;30.30;;;13.23;;
16737;SDS011;17906;47.684;10.806;2023-03-01T13:53:39;29.17;;;12.80;;
16737;SDS011;17906;47.684;10.806;2023-03-01T13:56:09;27.30;;;12.00;;
16737;SDS011;17906;47.684;10.806;2023-03-01T13:58:46;31.70;;;13.10;;
16737;SDS011;17906;47.684;10.806;2023-03-01T14:01:22;28.33;;;12.57;;
16737;SDS011;17906;47.684;10.806;2023-03-01T14:03:55;32.77;;;13.20;;
16737;SDS011;17906;47.684;10.806;2023-03-01T14:06:23;30.13;;;13.27;;
16737;SDS011;17906;47.684;10.806;2023-03-01T14:08:51;32.17;;;13.33;;
16737;SDS011;17906;47.684;10.806;2023-03-01T14:14:31;27.77;;;12.17;;
16737;SDS011;17906;47.684;10.806;2023-03-01T14:17:08;33.80;;;14.33;;
16737;SDS011;17906;47.684;10.806;2023-03-01T14:19:55;32.63;;;13.37;;
16737;SDS011;17906;47.684;10.806;2023-03-01T14:22:24;27.80;;;12.80;;
16737;SDS011;17906;47.684;10.806;2023-03-01T14:24:54;30.23;;;13.03;;
16737;SDS011;17906;47.684;10.806;2023-03-01T14:27:22;39.27;;;16.77;;
16737;SDS011;17906;47.684;10.806;2023-03-01T14:29:55;30.13;;;13.50;;
16737;SDS011;17906;47.684;10.806;2023-03-01T14:32:24;57.20;;;19.40;;
16737;SDS011;17906;47.684;10.806;2023-03-01T14:34:52;36.83;;;14.83;;
16737;SDS011;17906;47.684;10.806;2023-03-01T14:37:21;34.63;;;14.47;;
16737;SDS011;17906;47.684;10.806;2023-03-01T14:39:50;33.00;;;14.03;;
16737;SDS011;17906;47.684;10.806;2023-03-01T14:42:17;32.40;;;14.27;;
16737;SDS011;17906;47.684;10.806;2023-03-01T14:44:46;35.03;;;14.57;;